sensor_id;sensor_type;location;lat;lon;timestamp;P1;durP1;ratioP1;P2;durP2;ratioP2
23617;SDS011;18207;32.078;34.818;2022-12-20T00:02:49;4.03;;;3.53;;
23617;SDS011;18207;32.078;34.818;2022-12-20T00:05:20;3.80;;;3.50;;
23617;SDS011;18207;32.078;34.818;2022-12-20T00:07:50;4.50;;;3.95;;
23617;SDS011;18207;32.078;34.818;2022-12-20T00:10:21;4.28;;;3.85;;
23617;SDS011;18207;32.078;34.818;2022-12-20T00:12:51;4.03;;;3.63;;
23617;SDS011;18207;32.078;34.818;2022-12-20T00:15:23;5.10;;;3.92;;
23617;SDS011;18207;32.078;34.818;2022-12-20T00:17:54;5.15;;;3.53;;
23617;SDS011;18207;32.078;34.818;2022-12-20T00:20:24;4.10;;;3.70;;
23617;SDS011;18207;32.078;34.818;2022-12-20T00:23:04;3.75;;;3.30;;
23617;SDS011;18207;32.078;34.818;2022-12-20T00:25:35;3.33;;;3.05;;
23617;SDS011;18207;32.078;34.818;2022-12-20T00:28:06;5.38;;;3.15;;
23617;SDS011;18207;32.078;34.818;2022-12-20T00:30:39;3.72;;;3.38;;
23617;SDS011;18207;32.078;34.818;2022-12-20T00:33:10;4.40;;;3.17;;
23617;SDS011;18207;32.078;34.818;2022-12-20T00:35:40;3.45;;;2.88;;
23617;SDS011;18207;32.078;34.818;2022-12-20T00:38:11;4.07;;;3.22;;
23617;SDS011;18207;32.078;34.818;2022-12-20T00:40:41;3.92;;;3.35;;
23617;SDS011;18207;32.078;34.818;2022-12-20T00:43:11;3.72;;;3.42;;
23617;SDS011;18207;32.078;34.818;2022-12-20T00:45:44;5.03;;;3.60;;
23617;SDS011;18207;32.078;34.818;2022-12-20T00:48:14;3.58;;;3.20;;
23617;SDS011;18207;32.078;34.818;2022-12-20T00:50:44;3.80;;;3.40;;
23617;SDS011;18207;32.078;34.818;2022-12-20T00:53:15;3.70;;;3.40;;
23617;SDS011;18207;32.078;34.818;2022-12-20T00:55:51;3.83;;;3.20;;
23617;SDS011;18207;32.078;34.818;2022-12-20T00:58:22;3.22;;;2.95;;
23617;SDS011;18207;32.078;34.818;2022-12-20T01:00:54;3.25;;;2.95;;
23617;SDS011;18207;32.078;34.818;2022-12-20T01:03:25;3.78;;;2.90;;
23617;SDS011;18207;32.078;34.818;2022-12-20T01:05:57;4.07;;;3.40;;
23617;SDS011;18207;32.078;34.818;2022-12-20T01:08:29;3.38;;;2.75;;
23617;SDS011;18207;32.078;34.818;2022-12-20T01:11:01;3.33;;;3.03;;
23617;SDS011;18207;32.078;34.818;2022-12-20T01:13:34;3.13;;;2.80;;
23617;SDS011;18207;32.078;34.818;2022-12-20T01:16:10;4.22;;;3.03;;
23617;SDS011;18207;32.078;34.818;2022-12-20T01:18:43;2.90;;;2.63;;
23617;SDS011;18207;32.078;34.818;2022-12-20T01:21:15;3.20;;;2.90;;
23617;SDS011;18207;32.078;34.818;2022-12-20T01:23:47;3.65;;;2.65;;
23617;SDS011;18207;32.078;34.818;2022-12-20T01:26:19;3.63;;;2.78;;
23617;SDS011;18207;32.078;34.818;2022-12-20T01:28:53;2.90;;;2.65;;
23617;SDS011;18207;32.078;34.818;2022-12-20T01:31:27;2.67;;;2.47;;
23617;SDS011;18207;32.078;34.818;2022-12-20T01:33:59;3.05;;;2.75;;
23617;SDS011;18207;32.078;34.818;2022-12-20T01:36:31;3.40;;;2.90;;
23617;SDS011;18207;32.078;34.818;2022-12-20T01:39:06;2.80;;;2.60;;
23617;SDS011;18207;32.078;34.818;2022-12-20T01:41:39;3.33;;;2.58;;
23617;SDS011;18207;32.078;34.818;2022-12-20T01:47:28;3.17;;;2.70;;
23617;SDS011;18207;32.078;34.818;2022-12-20T01:50:04;2.60;;;2.40;;
23617;SDS011;18207;32.078;34.818;2022-12-20T01:52:37;4.38;;;2.92;;
23617;SDS011;18207;32.078;34.818;2022-12-20T01:55:14;3.55;;;2.80;;
23617;SDS011;18207;32.078;34.818;2022-12-20T01:57:50;2.90;;;2.70;;
23617;SDS011;18207;32.078;34.818;2022-12-20T02:00:27;2.83;;;2.50;;
23617;SDS011;18207;32.078;34.818;2022-12-20T02:03:00;2.92;;;2.72;;
23617;SDS011;18207;32.078;34.818;2022-12-20T02:05:37;2.83;;;2.63;;
23617;SDS011;18207;32.078;34.818;2022-12-20T02:08:11;3.13;;;2.75;;
23617;SDS011;18207;32.078;34.818;2022-12-20T02:10:50;2.65;;;2.45;;
23617;SDS011;18207;32.078;34.818;2022-12-20T02:13:44;3.20;;;2.67;;
23617;SDS011;18207;32.078;34.818;2022-12-20T02:16:33;2.70;;;2.50;;
23617;SDS011;18207;32.078;34.818;2022-12-20T02:19:19;2.83;;;2.63;;
23617;SDS011;18207;32.078;34.818;2022-12-20T02:22:22;2.53;;;2.33;;
23617;SDS011;18207;32.078;34.818;2022-12-20T02:28:22;3.08;;;2.53;;
23617;SDS011;18207;32.078;34.818;2022-12-20T02:31:19;2.58;;;2.38;;
23617;SDS011;18207;32.078;34.818;2022-12-20T02:33:59;2.83;;;2.60;;
23617;SDS011;18207;32.078;34.818;2022-12-20T02:36:31;3.80;;;2.40;;
23617;SDS011;18207;32.078;34.818;2022-12-20T02:39:02;2.58;;;2.38;;
23617;SDS011;18207;32.078;34.818;2022-12-20T02:41:33;3.20;;;2.90;;
23617;SDS011;18207;32.078;34.818;2022-12-20T02:44:11;2.70;;;2.47;;
23617;SDS011;18207;32.078;34.818;2022-12-20T02:47:06;2.60;;;2.40;;
23617;SDS011;18207;32.078;34.818;2022-12-20T02:49:42;2.72;;;2.50;;
23617;SDS011;18207;32.078;34.818;2022-12-20T02:52:16;3.05;;;2.58;;
23617;SDS011;18207;32.078;34.818;2022-12-20T02:54:52;3.10;;;2.80;;
23617;SDS011;18207;32.078;34.818;2022-12-20T02:57:24;2.92;;;2.70;;
23617;SDS011;18207;32.078;34.818;2022-12-20T03:00:07;2.90;;;2.70;;
23617;SDS011;18207;32.078;34.818;2022-12-20T03:02:44;2.75;;;2.38;;
23617;SDS011;18207;32.078;34.818;2022-12-20T03:05:34;2.70;;;2.50;;
23617;SDS011;18207;32.078;34.818;2022-12-20T03:08:13;2.50;;;2.30;;
23617;SDS011;18207;32.078;34.818;2022-12-20T03:10:44;2.70;;;2.50;;
23617;SDS011;18207;32.078;34.818;2022-12-20T03:13:15;2.58;;;2.38;;
23617;SDS011;18207;32.078;34.818;2022-12-20T03:15:45;3.30;;;3.00;;
23617;SDS011;18207;32.078;34.818;2022-12-20T03:18:18;3.25;;;2.65;;
23617;SDS011;18207;32.078;34.818;2022-12-20T03:20:48;3.10;;;2.80;;
23617;SDS011;18207;32.078;34.818;2022-12-20T03:23:19;3.60;;;2.67;;
23617;SDS011;18207;32.078;34.818;2022-12-20T03:25:50;2.92;;;2.70;;
23617;SDS011;18207;32.078;34.818;2022-12-20T03:28:20;4.07;;;3.17;;
23617;SDS011;18207;32.078;34.818;2022-12-20T03:30:51;3.13;;;2.83;;
23617;SDS011;18207;32.078;34.818;2022-12-20T03:33:23;3.95;;;2.65;;
23617;SDS011;18207;32.078;34.818;2022-12-20T03:35:53;2.90;;;2.55;;
23617;SDS011;18207;32.078;34.818;2022-12-20T03:38:24;3.00;;;2.67;;
23617;SDS011;18207;32.078;34.818;2022-12-20T03:40:55;2.83;;;2.55;;
23617;SDS011;18207;32.078;34.818;2022-12-20T03:43:25;2.70;;;2.42;;
23617;SDS011;18207;32.078;34.818;2022-12-20T03:45:56;3.42;;;2.85;;
23617;SDS011;18207;32.078;34.818;2022-12-20T03:48:31;3.17;;;2.85;;
23617;SDS011;18207;32.078;34.818;2022-12-20T03:51:02;3.50;;;2.63;;
23617;SDS011;18207;32.078;34.818;2022-12-20T03:53:32;4.05;;;2.72;;
23617;SDS011;18207;32.078;34.818;2022-12-20T03:56:02;2.85;;;2.63;;
23617;SDS011;18207;32.078;34.818;2022-12-20T03:58:33;2.78;;;2.58;;
23617;SDS011;18207;32.078;34.818;2022-12-20T04:01:15;3.10;;;2.80;;
23617;SDS011;18207;32.078;34.818;2022-12-20T04:03:53;3.22;;;2.92;;
23617;SDS011;18207;32.078;34.818;2022-12-20T04:06:24;3.50;;;2.70;;
23617;SDS011;18207;32.078;34.818;2022-12-20T04:08:55;3.58;;;3.05;;
23617;SDS011;18207;32.078;34.818;2022-12-20T04:11:25;2.95;;;2.65;;
23617;SDS011;18207;32.078;34.818;2022-12-20T04:13:56;3.60;;;2.75;;
23617;SDS011;18207;32.078;34.818;2022-12-20T04:16:27;3.25;;;2.97;;
23617;SDS011;18207;32.078;34.818;2022-12-20T04:18:59;3.33;;;2.78;;
23617;SDS011;18207;32.078;34.818;2022-12-20T04:21:30;2.85;;;2.55;;
23617;SDS011;18207;32.078;34.818;2022-12-20T04:24:03;3.10;;;2.80;;
23617;SDS011;18207;32.078;34.818;2022-12-20T04:26:34;3.88;;;2.78;;
23617;SDS011;18207;32.078;34.818;2022-12-20T04:29:05;4.13;;;2.90;;
23617;SDS011;18207;32.078;34.818;2022-12-20T04:31:36;4.72;;;2.90;;
23617;SDS011;18207;32.078;34.818;2022-12-20T04:34:07;2.88;;;2.63;;
23617;SDS011;18207;32.078;34.818;2022-12-20T04:36:38;3.40;;;3.10;;
23617;SDS011;18207;32.078;34.818;2022-12-20T04:39:08;3.00;;;2.70;;
23617;SDS011;18207;32.078;34.818;2022-12-20T04:41:39;2.78;;;2.58;;
23617;SDS011;18207;32.078;34.818;2022-12-20T04:44:08;3.20;;;2.88;;
23617;SDS011;18207;32.078;34.818;2022-12-20T04:46:39;2.90;;;2.70;;
23617;SDS011;18207;32.078;34.818;2022-12-20T04:49:11;3.10;;;2.80;;
23617;SDS011;18207;32.078;34.818;2022-12-20T04:51:41;3.40;;;3.03;;
23617;SDS011;18207;32.078;34.818;2022-12-20T04:54:11;3.30;;;2.88;;
23617;SDS011;18207;32.078;34.818;2022-12-20T04:56:40;3.10;;;2.80;;
23617;SDS011;18207;32.078;34.818;2022-12-20T04:59:11;3.95;;;2.88;;
23617;SDS011;18207;32.078;34.818;2022-12-20T05:01:41;3.08;;;2.78;;
23617;SDS011;18207;32.078;34.818;2022-12-20T05:04:14;3.17;;;2.80;;
23617;SDS011;18207;32.078;34.818;2022-12-20T05:06:44;3.35;;;2.95;;
23617;SDS011;18207;32.078;34.818;2022-12-20T05:09:15;3.00;;;2.80;;
23617;SDS011;18207;32.078;34.818;2022-12-20T05:11:45;2.85;;;2.65;;
23617;SDS011;18207;32.078;34.818;2022-12-20T05:14:16;2.95;;;2.63;;
23617;SDS011;18207;32.078;34.818;2022-12-20T05:16:46;2.80;;;2.50;;
23617;SDS011;18207;32.078;34.818;2022-12-20T05:19:18;2.75;;;2.55;;
23617;SDS011;18207;32.078;34.818;2022-12-20T05:21:48;3.13;;;2.83;;
23617;SDS011;18207;32.078;34.818;2022-12-20T05:24:35;3.10;;;2.78;;
23617;SDS011;18207;32.078;34.818;2022-12-20T05:27:26;2.97;;;2.67;;
23617;SDS011;18207;32.078;34.818;2022-12-20T05:29:56;3.30;;;2.70;;
23617;SDS011;18207;32.078;34.818;2022-12-20T05:32:27;3.00;;;2.75;;
23617;SDS011;18207;32.078;34.818;2022-12-20T05:34:59;3.60;;;2.80;;
23617;SDS011;18207;32.078;34.818;2022-12-20T05:37:29;3.22;;;2.95;;
23617;SDS011;18207;32.078;34.818;2022-12-20T05:40:00;2.95;;;2.75;;
23617;SDS011;18207;32.078;34.818;2022-12-20T05:42:31;2.92;;;2.72;;
23617;SDS011;18207;32.078;34.818;2022-12-20T05:45:01;3.45;;;2.83;;
23617;SDS011;18207;32.078;34.818;2022-12-20T05:47:33;3.10;;;2.80;;
23617;SDS011;18207;32.078;34.818;2022-12-20T05:50:09;3.30;;;3.00;;
23617;SDS011;18207;32.078;34.818;2022-12-20T05:52:44;3.53;;;2.80;;
23617;SDS011;18207;32.078;34.818;2022-12-20T05:55:15;3.13;;;2.80;;
23617;SDS011;18207;32.078;34.818;2022-12-20T05:57:46;3.40;;;2.90;;
23617;SDS011;18207;32.078;34.818;2022-12-20T06:00:16;3.38;;;3.08;;
23617;SDS011;18207;32.078;34.818;2022-12-20T06:02:47;3.30;;;2.83;;
23617;SDS011;18207;32.078;34.818;2022-12-20T06:05:19;3.03;;;2.72;;
23617;SDS011;18207;32.078;34.818;2022-12-20T06:07:50;3.05;;;2.80;;
23617;SDS011;18207;32.078;34.818;2022-12-20T06:10:21;3.08;;;2.88;;
23617;SDS011;18207;32.078;34.818;2022-12-20T06:12:52;3.45;;;2.90;;
23617;SDS011;18207;32.078;34.818;2022-12-20T06:15:23;3.03;;;2.83;;
23617;SDS011;18207;32.078;34.818;2022-12-20T06:17:53;3.67;;;2.65;;
23617;SDS011;18207;32.078;34.818;2022-12-20T06:20:26;3.30;;;2.70;;
23617;SDS011;18207;32.078;34.818;2022-12-20T06:22:57;3.05;;;2.72;;
23617;SDS011;18207;32.078;34.818;2022-12-20T06:25:28;3.25;;;2.95;;
23617;SDS011;18207;32.078;34.818;2022-12-20T06:27:58;3.15;;;2.85;;
23617;SDS011;18207;32.078;34.818;2022-12-20T06:30:29;3.05;;;2.75;;
23617;SDS011;18207;32.078;34.818;2022-12-20T06:33:00;3.42;;;2.90;;
23617;SDS011;18207;32.078;34.818;2022-12-20T06:35:32;5.93;;;3.28;;
23617;SDS011;18207;32.078;34.818;2022-12-20T06:38:03;3.28;;;2.97;;
23617;SDS011;18207;32.078;34.818;2022-12-20T06:40:33;3.60;;;3.20;;
23617;SDS011;18207;32.078;34.818;2022-12-20T06:43:04;5.13;;;2.97;;
23617;SDS011;18207;32.078;34.818;2022-12-20T06:45:38;3.45;;;3.03;;
23617;SDS011;18207;32.078;34.818;2022-12-20T06:48:08;3.50;;;3.20;;
23617;SDS011;18207;32.078;34.818;2022-12-20T06:50:41;4.55;;;2.92;;
23617;SDS011;18207;32.078;34.818;2022-12-20T06:53:19;3.90;;;2.78;;
23617;SDS011;18207;32.078;34.818;2022-12-20T06:55:49;3.08;;;2.80;;
23617;SDS011;18207;32.078;34.818;2022-12-20T06:58:20;3.97;;;2.90;;
23617;SDS011;18207;32.078;34.818;2022-12-20T07:00:50;3.78;;;2.72;;
23617;SDS011;18207;32.078;34.818;2022-12-20T07:03:22;2.83;;;2.60;;
23617;SDS011;18207;32.078;34.818;2022-12-20T07:05:54;2.85;;;2.65;;
23617;SDS011;18207;32.078;34.818;2022-12-20T07:08:26;2.90;;;2.60;;
23617;SDS011;18207;32.078;34.818;2022-12-20T07:11:02;3.63;;;3.17;;
23617;SDS011;18207;32.078;34.818;2022-12-20T07:13:36;4.43;;;3.03;;
23617;SDS011;18207;32.078;34.818;2022-12-20T07:16:07;2.97;;;2.78;;
23617;SDS011;18207;32.078;34.818;2022-12-20T07:18:37;3.35;;;2.90;;
23617;SDS011;18207;32.078;34.818;2022-12-20T07:21:09;3.50;;;2.58;;
23617;SDS011;18207;32.078;34.818;2022-12-20T07:23:43;3.33;;;3.03;;
23617;SDS011;18207;32.078;34.818;2022-12-20T07:26:14;3.60;;;3.30;;
23617;SDS011;18207;32.078;34.818;2022-12-20T07:28:44;3.03;;;2.83;;
23617;SDS011;18207;32.078;34.818;2022-12-20T07:31:15;3.28;;;2.78;;
23617;SDS011;18207;32.078;34.818;2022-12-20T07:33:46;3.22;;;2.92;;
23617;SDS011;18207;32.078;34.818;2022-12-20T07:36:18;3.22;;;3.03;;
23617;SDS011;18207;32.078;34.818;2022-12-20T07:38:50;9.48;;;3.88;;
23617;SDS011;18207;32.078;34.818;2022-12-20T07:41:20;3.45;;;3.15;;
23617;SDS011;18207;32.078;34.818;2022-12-20T07:43:51;5.30;;;3.38;;
23617;SDS011;18207;32.078;34.818;2022-12-20T07:46:21;3.15;;;2.78;;
23617;SDS011;18207;32.078;34.818;2022-12-20T07:48:51;4.97;;;3.17;;
23617;SDS011;18207;32.078;34.818;2022-12-20T07:51:25;3.20;;;2.90;;
23617;SDS011;18207;32.078;34.818;2022-12-20T07:54:03;3.33;;;2.85;;
23617;SDS011;18207;32.078;34.818;2022-12-20T07:56:39;3.88;;;2.95;;
23617;SDS011;18207;32.078;34.818;2022-12-20T07:59:15;3.70;;;2.95;;
23617;SDS011;18207;32.078;34.818;2022-12-20T08:01:51;3.35;;;3.05;;
23617;SDS011;18207;32.078;34.818;2022-12-20T08:04:29;3.95;;;3.08;;
23617;SDS011;18207;32.078;34.818;2022-12-20T08:07:03;3.00;;;2.80;;
23617;SDS011;18207;32.078;34.818;2022-12-20T08:09:37;2.80;;;2.58;;
23617;SDS011;18207;32.078;34.818;2022-12-20T08:12:13;2.80;;;2.60;;
23617;SDS011;18207;32.078;34.818;2022-12-20T08:14:47;2.45;;;2.25;;
23617;SDS011;18207;32.078;34.818;2022-12-20T08:17:22;3.30;;;2.60;;
23617;SDS011;18207;32.078;34.818;2022-12-20T08:19:53;2.95;;;2.70;;
23617;SDS011;18207;32.078;34.818;2022-12-20T08:22:25;4.15;;;3.00;;
23617;SDS011;18207;32.078;34.818;2022-12-20T08:24:56;2.72;;;2.53;;
23617;SDS011;18207;32.078;34.818;2022-12-20T08:27:27;2.42;;;2.22;;
23617;SDS011;18207;32.078;34.818;2022-12-20T08:29:59;2.53;;;2.33;;
23617;SDS011;18207;32.078;34.818;2022-12-20T08:32:29;2.65;;;2.45;;
23617;SDS011;18207;32.078;34.818;2022-12-20T08:35:00;2.70;;;2.50;;
23617;SDS011;18207;32.078;34.818;2022-12-20T08:37:33;2.63;;;2.42;;
23617;SDS011;18207;32.078;34.818;2022-12-20T08:40:04;2.55;;;2.35;;
23617;SDS011;18207;32.078;34.818;2022-12-20T08:42:36;2.58;;;2.38;;
23617;SDS011;18207;32.078;34.818;2022-12-20T08:45:06;2.17;;;2.05;;
23617;SDS011;18207;32.078;34.818;2022-12-20T08:47:38;2.63;;;2.42;;
23617;SDS011;18207;32.078;34.818;2022-12-20T08:50:09;2.60;;;2.40;;
23617;SDS011;18207;32.078;34.818;2022-12-20T08:52:43;2.75;;;2.55;;
23617;SDS011;18207;32.078;34.818;2022-12-20T08:55:15;2.85;;;2.65;;
23617;SDS011;18207;32.078;34.818;2022-12-20T08:57:53;3.90;;;2.63;;
23617;SDS011;18207;32.078;34.818;2022-12-20T09:00:24;2.85;;;2.65;;
23617;SDS011;18207;32.078;34.818;2022-12-20T09:02:57;2.70;;;2.50;;
23617;SDS011;18207;32.078;34.818;2022-12-20T09:05:27;2.60;;;2.40;;
23617;SDS011;18207;32.078;34.818;2022-12-20T09:08:03;2.63;;;2.42;;
23617;SDS011;18207;32.078;34.818;2022-12-20T09:10:33;2.53;;;2.33;;
23617;SDS011;18207;32.078;34.818;2022-12-20T09:13:03;3.03;;;2.72;;
23617;SDS011;18207;32.078;34.818;2022-12-20T09:15:33;2.55;;;2.35;;
23617;SDS011;18207;32.078;34.818;2022-12-20T09:18:04;3.08;;;2.78;;
23617;SDS011;18207;32.078;34.818;2022-12-20T09:20:35;3.00;;;2.70;;
23617;SDS011;18207;32.078;34.818;2022-12-20T09:23:12;2.70;;;2.50;;
23617;SDS011;18207;32.078;34.818;2022-12-20T09:25:43;2.55;;;2.35;;
23617;SDS011;18207;32.078;34.818;2022-12-20T09:28:19;2.78;;;2.58;;
23617;SDS011;18207;32.078;34.818;2022-12-20T09:30:49;2.78;;;2.58;;
23617;SDS011;18207;32.078;34.818;2022-12-20T09:33:20;2.67;;;2.47;;
23617;SDS011;18207;32.078;34.818;2022-12-20T09:35:50;2.72;;;2.53;;
23617;SDS011;18207;32.078;34.818;2022-12-20T09:38:21;2.50;;;2.30;;
23617;SDS011;18207;32.078;34.818;2022-12-20T09:40:52;2.85;;;2.33;;
23617;SDS011;18207;32.078;34.818;2022-12-20T09:43:26;2.92;;;2.35;;
23617;SDS011;18207;32.078;34.818;2022-12-20T09:45:57;3.10;;;2.80;;
23617;SDS011;18207;32.078;34.818;2022-12-20T09:48:32;2.42;;;2.22;;
23617;SDS011;18207;32.078;34.818;2022-12-20T09:51:08;2.70;;;2.50;;
23617;SDS011;18207;32.078;34.818;2022-12-20T09:53:58;2.85;;;2.65;;
23617;SDS011;18207;32.078;34.818;2022-12-20T09:56:42;3.13;;;2.60;;
23617;SDS011;18207;32.078;34.818;2022-12-20T09:59:19;2.70;;;2.50;;
23617;SDS011;18207;32.078;34.818;2022-12-20T10:01:49;2.75;;;2.55;;
23617;SDS011;18207;32.078;34.818;2022-12-20T10:04:21;2.60;;;2.40;;
23617;SDS011;18207;32.078;34.818;2022-12-20T10:07:02;2.70;;;2.50;;
23617;SDS011;18207;32.078;34.818;2022-12-20T10:13:07;2.67;;;2.47;;
23617;SDS011;18207;32.078;34.818;2022-12-20T10:15:50;2.80;;;2.60;;
23617;SDS011;18207;32.078;34.818;2022-12-20T10:18:32;2.85;;;2.65;;
23617;SDS011;18207;32.078;34.818;2022-12-20T10:21:24;2.85;;;2.65;;
23617;SDS011;18207;32.078;34.818;2022-12-20T10:24:10;2.95;;;2.75;;
23617;SDS011;18207;32.078;34.818;2022-12-20T10:26:50;3.00;;;2.70;;
23617;SDS011;18207;32.078;34.818;2022-12-20T10:29:20;3.00;;;2.75;;
23617;SDS011;18207;32.078;34.818;2022-12-20T10:31:51;3.63;;;3.10;;
23617;SDS011;18207;32.078;34.818;2022-12-20T10:34:28;3.10;;;2.80;;
23617;SDS011;18207;32.078;34.818;2022-12-20T10:37:12;2.95;;;2.75;;
23617;SDS011;18207;32.078;34.818;2022-12-20T10:39:46;3.28;;;3.00;;
23617;SDS011;18207;32.078;34.818;2022-12-20T10:42:24;2.88;;;2.67;;
23617;SDS011;18207;32.078;34.818;2022-12-20T10:45:05;2.83;;;2.63;;
23617;SDS011;18207;32.078;34.818;2022-12-20T10:48:03;2.58;;;2.38;;
23617;SDS011;18207;32.078;34.818;2022-12-20T10:50:35;3.78;;;2.70;;
23617;SDS011;18207;32.078;34.818;2022-12-20T10:53:17;2.78;;;2.58;;
23617;SDS011;18207;32.078;34.818;2022-12-20T10:55:51;3.00;;;2.70;;
23617;SDS011;18207;32.078;34.818;2022-12-20T10:58:31;4.22;;;2.90;;
23617;SDS011;18207;32.078;34.818;2022-12-20T11:01:04;3.33;;;3.05;;
23617;SDS011;18207;32.078;34.818;2022-12-20T11:03:48;3.03;;;2.83;;
23617;SDS011;18207;32.078;34.818;2022-12-20T11:06:26;3.65;;;2.88;;
23617;SDS011;18207;32.078;34.818;2022-12-20T11:09:20;3.42;;;2.85;;
23617;SDS011;18207;32.078;34.818;2022-12-20T11:11:58;3.00;;;2.80;;
23617;SDS011;18207;32.078;34.818;2022-12-20T11:14:35;3.13;;;2.92;;
23617;SDS011;18207;32.078;34.818;2022-12-20T11:17:15;3.03;;;2.83;;
23617;SDS011;18207;32.078;34.818;2022-12-20T11:19:59;3.08;;;2.88;;
23617;SDS011;18207;32.078;34.818;2022-12-20T11:22:55;3.05;;;2.80;;
23617;SDS011;18207;32.078;34.818;2022-12-20T11:25:49;3.20;;;2.90;;
23617;SDS011;18207;32.078;34.818;2022-12-20T11:28:45;3.58;;;3.28;;
23617;SDS011;18207;32.078;34.818;2022-12-20T11:31:39;3.20;;;3.00;;
23617;SDS011;18207;32.078;34.818;2022-12-20T11:34:28;3.30;;;2.83;;
23617;SDS011;18207;32.078;34.818;2022-12-20T11:37:19;3.15;;;2.88;;
23617;SDS011;18207;32.078;34.818;2022-12-20T11:39:59;3.45;;;2.83;;
23617;SDS011;18207;32.078;34.818;2022-12-20T11:42:51;3.22;;;2.97;;
23617;SDS011;18207;32.078;34.818;2022-12-20T11:45:41;4.15;;;3.22;;
23617;SDS011;18207;32.078;34.818;2022-12-20T11:48:31;4.20;;;3.00;;
23617;SDS011;18207;32.078;34.818;2022-12-20T11:51:20;3.35;;;3.05;;
23617;SDS011;18207;32.078;34.818;2022-12-20T11:53:56;3.08;;;2.88;;
23617;SDS011;18207;32.078;34.818;2022-12-20T11:56:39;3.53;;;2.92;;
23617;SDS011;18207;32.078;34.818;2022-12-20T11:59:15;3.13;;;2.92;;
23617;SDS011;18207;32.078;34.818;2022-12-20T12:01:59;3.60;;;3.30;;
23617;SDS011;18207;32.078;34.818;2022-12-20T12:04:40;3.45;;;3.15;;
23617;SDS011;18207;32.078;34.818;2022-12-20T12:07:17;3.58;;;3.28;;
23617;SDS011;18207;32.078;34.818;2022-12-20T12:09:54;3.47;;;3.17;;
23617;SDS011;18207;32.078;34.818;2022-12-20T12:12:30;3.08;;;2.83;;
23617;SDS011;18207;32.078;34.818;2022-12-20T12:15:18;3.50;;;3.20;;
23617;SDS011;18207;32.078;34.818;2022-12-20T12:18:02;3.28;;;2.67;;
23617;SDS011;18207;32.078;34.818;2022-12-20T12:20:49;4.00;;;3.22;;
23617;SDS011;18207;32.078;34.818;2022-12-20T12:23:36;3.60;;;3.03;;
23617;SDS011;18207;32.078;34.818;2022-12-20T12:26:19;3.58;;;2.88;;
23617;SDS011;18207;32.078;34.818;2022-12-20T12:28:53;3.38;;;3.17;;
23617;SDS011;18207;32.078;34.818;2022-12-20T12:31:31;3.35;;;3.15;;
23617;SDS011;18207;32.078;34.818;2022-12-20T12:34:14;3.47;;;3.17;;
23617;SDS011;18207;32.078;34.818;2022-12-20T12:43:58;3.25;;;2.97;;
23617;SDS011;18207;32.078;34.818;2022-12-20T12:46:59;3.22;;;2.92;;
23617;SDS011;18207;32.078;34.818;2022-12-20T12:49:46;3.10;;;2.80;;
23617;SDS011;18207;32.078;34.818;2022-12-20T12:52:27;3.55;;;3.25;;
23617;SDS011;18207;32.078;34.818;2022-12-20T13:01:00;3.28;;;3.00;;
23617;SDS011;18207;32.078;34.818;2022-12-20T13:03:36;3.45;;;3.15;;
23617;SDS011;18207;32.078;34.818;2022-12-20T13:09:35;3.35;;;3.08;;
23617;SDS011;18207;32.078;34.818;2022-12-20T13:15:50;3.15;;;2.90;;
23617;SDS011;18207;32.078;34.818;2022-12-20T13:21:46;3.13;;;2.90;;
23617;SDS011;18207;32.078;34.818;2022-12-20T13:27:23;3.58;;;3.28;;
23617;SDS011;18207;32.078;34.818;2022-12-20T13:33:14;4.28;;;3.33;;
23617;SDS011;18207;32.078;34.818;2022-12-20T13:36:00;3.60;;;3.30;;
23617;SDS011;18207;32.078;34.818;2022-12-20T13:38:49;3.47;;;3.17;;
23617;SDS011;18207;32.078;34.818;2022-12-20T13:41:27;3.63;;;3.33;;
23617;SDS011;18207;32.078;34.818;2022-12-20T13:44:22;4.40;;;3.30;;
23617;SDS011;18207;32.078;34.818;2022-12-20T13:47:25;3.35;;;3.05;;
23617;SDS011;18207;32.078;34.818;2022-12-20T13:50:17;3.92;;;3.33;;
23617;SDS011;18207;32.078;34.818;2022-12-20T13:53:04;3.30;;;3.00;;
23617;SDS011;18207;32.078;34.818;2022-12-20T13:55:45;3.72;;;3.42;;
23617;SDS011;18207;32.078;34.818;2022-12-20T13:58:16;3.85;;;3.55;;
23617;SDS011;18207;32.078;34.818;2022-12-20T14:00:50;3.67;;;3.38;;
23617;SDS011;18207;32.078;34.818;2022-12-20T14:03:33;4.15;;;3.42;;
23617;SDS011;18207;32.078;34.818;2022-12-20T14:06:14;3.75;;;3.45;;
23617;SDS011;18207;32.078;34.818;2022-12-20T14:08:52;3.85;;;3.55;;
23617;SDS011;18207;32.078;34.818;2022-12-20T14:11:23;3.85;;;3.55;;
23617;SDS011;18207;32.078;34.818;2022-12-20T14:13:56;3.85;;;3.53;;
23617;SDS011;18207;32.078;34.818;2022-12-20T14:16:29;3.97;;;3.67;;
23617;SDS011;18207;32.078;34.818;2022-12-20T14:19:04;3.75;;;3.45;;
23617;SDS011;18207;32.078;34.818;2022-12-20T14:21:43;4.07;;;3.67;;
23617;SDS011;18207;32.078;34.818;2022-12-20T14:24:16;4.03;;;3.55;;
23617;SDS011;18207;32.078;34.818;2022-12-20T14:26:49;4.10;;;3.70;;
23617;SDS011;18207;32.078;34.818;2022-12-20T14:29:23;3.67;;;3.38;;
23617;SDS011;18207;32.078;34.818;2022-12-20T14:31:58;3.80;;;3.50;;
23617;SDS011;18207;32.078;34.818;2022-12-20T14:34:30;3.72;;;3.42;;
23617;SDS011;18207;32.078;34.818;2022-12-20T14:37:16;3.85;;;3.45;;
23617;SDS011;18207;32.078;34.818;2022-12-20T14:39:58;4.03;;;3.70;;
23617;SDS011;18207;32.078;34.818;2022-12-20T14:42:43;4.43;;;3.53;;
23617;SDS011;18207;32.078;34.818;2022-12-20T14:45:21;3.63;;;3.33;;
23617;SDS011;18207;32.078;34.818;2022-12-20T14:47:56;3.97;;;3.58;;
23617;SDS011;18207;32.078;34.818;2022-12-20T14:50:51;4.80;;;3.58;;
23617;SDS011;18207;32.078;34.818;2022-12-20T14:53:22;4.10;;;3.33;;
23617;SDS011;18207;32.078;34.818;2022-12-20T14:55:55;3.53;;;3.22;;
23617;SDS011;18207;32.078;34.818;2022-12-20T14:58:27;3.97;;;3.67;;
23617;SDS011;18207;32.078;34.818;2022-12-20T15:01:01;4.20;;;3.67;;
23617;SDS011;18207;32.078;34.818;2022-12-20T15:03:50;4.18;;;3.78;;
23617;SDS011;18207;32.078;34.818;2022-12-20T15:06:42;3.78;;;3.45;;
23617;SDS011;18207;32.078;34.818;2022-12-20T15:09:14;3.83;;;3.47;;
23617;SDS011;18207;32.078;34.818;2022-12-20T15:11:44;3.58;;;3.28;;
23617;SDS011;18207;32.078;34.818;2022-12-20T15:14:20;4.05;;;3.55;;
23617;SDS011;18207;32.078;34.818;2022-12-20T15:17:08;4.10;;;3.70;;
23617;SDS011;18207;32.078;34.818;2022-12-20T15:19:42;4.03;;;3.63;;
23617;SDS011;18207;32.078;34.818;2022-12-20T15:22:15;3.55;;;3.25;;
23617;SDS011;18207;32.078;34.818;2022-12-20T15:24:48;3.97;;;3.67;;
23617;SDS011;18207;32.078;34.818;2022-12-20T15:27:18;4.68;;;3.75;;
23617;SDS011;18207;32.078;34.818;2022-12-20T15:29:50;3.95;;;3.65;;
23617;SDS011;18207;32.078;34.818;2022-12-20T15:32:21;4.32;;;3.90;;
23617;SDS011;18207;32.078;34.818;2022-12-20T15:34:57;4.20;;;3.83;;
23617;SDS011;18207;32.078;34.818;2022-12-20T15:37:29;4.00;;;3.60;;
23617;SDS011;18207;32.078;34.818;2022-12-20T15:39:59;3.95;;;3.58;;
23617;SDS011;18207;32.078;34.818;2022-12-20T15:42:29;4.57;;;4.10;;
23617;SDS011;18207;32.078;34.818;2022-12-20T15:44:59;4.43;;;4.03;;
23617;SDS011;18207;32.078;34.818;2022-12-20T15:47:30;4.32;;;3.97;;
23617;SDS011;18207;32.078;34.818;2022-12-20T15:50:00;4.03;;;3.70;;
23617;SDS011;18207;32.078;34.818;2022-12-20T15:52:33;4.05;;;3.65;;
23617;SDS011;18207;32.078;34.818;2022-12-20T15:55:03;4.55;;;3.70;;
23617;SDS011;18207;32.078;34.818;2022-12-20T15:57:34;4.03;;;3.63;;
23617;SDS011;18207;32.078;34.818;2022-12-20T16:00:05;4.18;;;3.63;;
23617;SDS011;18207;32.078;34.818;2022-12-20T16:02:37;3.95;;;3.65;;